createdAt,value
2022-10-18T00:02:04.540Z,99344.06
2022-10-18T00:04:31.116Z,99344.31
2022-10-18T00:06:57.572Z,99358.19
2022-10-18T00:09:24.017Z,99353.66
2022-10-18T00:11:51.512Z,99364.31
2022-10-18T00:14:17.903Z,99355.16
2022-10-18T00:16:44.339Z,99366.44
2022-10-18T00:19:10.823Z,99370.06
2022-10-18T00:21:37.261Z,99372.16
2022-10-18T00:24:04.076Z,99364.91
2022-10-18T00:26:31.585Z,99369.78
2022-10-18T00:29:02.017Z,99376.69
2022-10-18T00:31:32.929Z,99380.63
2022-10-18T00:34:05.531Z,99371.06
2022-10-18T00:36:34.352Z,99372.06
2022-10-18T00:39:02.251Z,99366.63
2022-10-18T00:41:31.621Z,99369.81
2022-10-18T00:43:59.701Z,99366.78
2022-10-18T00:46:34.378Z,99369.66
2022-10-18T00:49:07.080Z,99372.66
2022-10-18T00:51:53.269Z,99360.69
2022-10-18T00:54:20.829Z,99356.06
2022-10-18T00:56:47.227Z,99352.53
2022-10-18T00:59:15.727Z,99357.31
2022-10-18T01:01:42.711Z,99355.66
2022-10-18T01:04:09.324Z,99359.28
2022-10-18T01:07:06.789Z,99357.16
2022-10-18T01:09:42.216Z,99356.59
2022-10-18T01:12:33.510Z,99351.09
2022-10-18T01:15:08.512Z,99346.63
2022-10-18T01:17:40.923Z,99355.38
2022-10-18T01:20:41.333Z,99362.19
2022-10-18T01:23:28.287Z,99354.13
2022-10-18T01:26:19.247Z,99352.63
2022-10-18T01:29:02.997Z,99354.78
2022-10-18T01:31:40.891Z,99354.34
2022-10-18T01:34:10.062Z,99357.59
2022-10-18T01:36:43.465Z,99362.50
2022-10-18T01:39:18.487Z,99358.66
2022-10-18T01:41:46.733Z,99363.34
2022-10-18T01:44:18.864Z,99357.06
2022-10-18T01:46:47.062Z,99356.97
2022-10-18T01:49:13.889Z,99355.91
2022-10-18T01:51:40.530Z,99362.41
2022-10-18T01:54:07.167Z,99355.41
2022-10-18T01:56:49.816Z,99359.00
2022-10-18T01:59:43.898Z,99352.00
2022-10-18T02:02:37.677Z,99355.72
2022-10-18T02:05:31.308Z,99355.31
2022-10-18T02:08:12.523Z,99356.03
2022-10-18T02:10:52.598Z,99358.53
2022-10-18T02:13:21.285Z,99356.59
2022-10-18T02:15:51.349Z,99350.00
2022-10-18T02:18:24.880Z,99354.59
2022-10-18T02:20:51.763Z,99353.41
2022-10-18T02:23:21.532Z,99354.09
2022-10-18T02:25:48.159Z,99354.09
2022-10-18T02:28:14.717Z,99353.47
2022-10-18T02:30:49.953Z,99353.56
2022-10-18T02:33:57.198Z,99357.19
2022-10-18T02:36:45.029Z,99357.41
2022-10-18T02:39:18.748Z,99364.75
2022-10-18T02:41:45.216Z,99354.84
2022-10-18T02:44:11.654Z,99356.25
2022-10-18T02:46:39.283Z,99359.44
2022-10-18T02:49:05.945Z,99355.00
2022-10-18T02:51:32.621Z,99365.22
2022-10-18T02:53:59.153Z,99365.50
2022-10-18T02:56:25.520Z,99349.56
2022-10-18T02:58:51.879Z,99364.13
2022-10-18T03:01:18.386Z,99371.19
2022-10-18T03:03:44.905Z,99367.88
2022-10-18T03:06:11.281Z,99369.91
2022-10-18T03:08:38.076Z,99365.31
2022-10-18T03:11:04.627Z,99365.63
2022-10-18T03:13:31.001Z,99373.06
2022-10-18T03:15:57.411Z,99375.22
2022-10-18T03:18:23.922Z,99382.00
2022-10-18T03:20:50.297Z,99380.13
2022-10-18T03:23:17.002Z,99380.94
2022-10-18T03:25:45.698Z,99373.94
2022-10-18T03:28:12.989Z,99380.00
2022-10-18T03:30:39.404Z,99381.19
2022-10-18T03:33:06.402Z,99372.66
2022-10-18T03:35:33.171Z,99373.50
2022-10-18T03:37:59.662Z,99376.50
2022-10-18T03:40:26.095Z,99377.13
2022-10-18T03:42:52.488Z,99376.81
2022-10-18T03:45:18.880Z,99374.59
2022-10-18T03:47:45.326Z,99371.84
2022-10-18T03:50:11.690Z,99376.38
2022-10-18T03:52:38.172Z,99372.03
2022-10-18T03:55:04.997Z,99365.88
2022-10-18T03:57:31.405Z,99363.34
2022-10-18T03:59:57.814Z,99358.44
2022-10-18T04:02:24.762Z,99361.84
2022-10-18T04:04:51.351Z,99360.34
2022-10-18T04:07:18.126Z,99358.22
2022-10-18T04:09:44.671Z,99356.31
2022-10-18T04:12:11.103Z,99346.88
2022-10-18T04:14:37.496Z,99349.28
2022-10-18T04:17:04.819Z,99358.44
2022-10-18T04:19:31.418Z,99355.44
2022-10-18T04:21:57.876Z,99356.44
2022-10-18T04:24:24.426Z,99360.78
2022-10-18T04:26:50.908Z,99362.34
2022-10-18T04:29:17.567Z,99361.72
2022-10-18T04:31:44.168Z,99366.53
2022-10-18T04:34:11.068Z,99372.88
2022-10-18T04:36:37.461Z,99368.63
2022-10-18T04:39:04.081Z,99365.97
2022-10-18T04:41:30.546Z,99368.97
2022-10-18T04:43:56.963Z,99367.69
2022-10-18T04:46:23.335Z,99367.00
2022-10-18T04:48:49.834Z,99365.31
2022-10-18T04:51:16.301Z,99363.00
2022-10-18T04:53:42.961Z,99364.13
2022-10-18T04:56:09.519Z,99365.41
2022-10-18T04:58:35.902Z,99366.25
2022-10-18T05:01:07.782Z,99359.84
2022-10-18T05:03:35.055Z,99354.56
2022-10-18T05:06:03.383Z,99361.16
2022-10-18T05:08:31.082Z,99357.66
2022-10-18T05:10:57.606Z,99356.56
2022-10-18T05:13:24.577Z,99361.34
2022-10-18T05:15:51.414Z,99359.56
2022-10-18T05:18:18.181Z,99362.50
2022-10-18T05:20:44.677Z,99361.88
2022-10-18T05:23:11.184Z,99365.81
2022-10-18T05:25:42.172Z,99361.31
2022-10-18T05:28:10.963Z,99355.91
2022-10-18T05:30:42.852Z,99358.22
2022-10-18T05:33:09.473Z,99358.72
2022-10-18T05:35:36.228Z,99362.75
2022-10-18T05:38:05.753Z,99360.97
2022-10-18T05:40:38.460Z,99359.25
2022-10-18T05:43:04.931Z,99361.78
2022-10-18T05:45:31.360Z,99360.06
2022-10-18T05:47:57.796Z,99363.47
2022-10-18T05:50:24.450Z,99362.16
2022-10-18T05:52:51.081Z,99353.94
2022-10-18T05:55:17.528Z,99358.09
2022-10-18T05:57:43.915Z,99361.38
2022-10-18T06:00:11.140Z,99357.84
2022-10-18T06:02:37.790Z,99357.59
2022-10-18T06:05:04.434Z,99352.19
2022-10-18T06:07:31.316Z,99356.59
2022-10-18T06:09:57.886Z,99352.03
2022-10-18T06:12:24.275Z,99345.13
2022-10-18T06:14:50.790Z,99357.19
2022-10-18T06:17:17.362Z,99348.47
2022-10-18T06:19:44.435Z,99345.00
2022-10-18T06:22:11.791Z,99337.94
2022-10-18T06:24:39.034Z,99335.28
2022-10-18T06:27:09.400Z,99327.44
2022-10-18T06:29:37.107Z,99313.41
2022-10-18T06:32:04.723Z,99312.50
2022-10-18T06:34:31.415Z,99319.97
2022-10-18T06:36:58.809Z,99330.53
2022-10-18T06:39:25.665Z,99329.63
2022-10-18T06:41:52.057Z,99321.03
2022-10-18T06:44:18.696Z,99318.56
2022-10-18T06:46:46.365Z,99310.28
2022-10-18T06:49:16.748Z,99307.28
2022-10-18T06:51:46.163Z,99298.50
2022-10-18T06:54:17.891Z,99290.28
2022-10-18T06:56:45.351Z,99281.34
2022-10-18T06:59:11.742Z,99289.38
2022-10-18T07:01:38.328Z,99315.00
2022-10-18T07:04:04.798Z,99321.47
2022-10-18T07:06:31.268Z,99317.03
2022-10-18T07:08:57.794Z,99314.53
2022-10-18T07:11:26.990Z,99319.03
2022-10-18T07:13:54.780Z,99325.53
2022-10-18T07:16:21.704Z,99312.78
2022-10-18T07:18:51.737Z,99312.16
2022-10-18T07:21:21.276Z,99328.78
2022-10-18T07:23:48.953Z,99330.38
2022-10-18T07:26:25.623Z,99323.75
2022-10-18T07:28:59.169Z,99319.28
2022-10-18T07:31:25.849Z,99319.47
2022-10-18T07:36:33.021Z,99316.41
2022-10-18T07:38:59.795Z,99317.47
2022-10-18T07:41:26.608Z,99331.28
2022-10-18T07:43:53.429Z,99325.47
2022-10-18T07:46:21.629Z,99329.25
2022-10-18T07:48:48.710Z,99339.03
2022-10-18T07:51:15.495Z,99335.59
2022-10-18T07:53:41.919Z,99330.47
2022-10-18T07:56:15.813Z,99318.81
2022-10-18T07:58:53.303Z,99316.78
2022-10-18T08:01:21.421Z,99319.53
2022-10-18T08:03:47.948Z,99335.03
2022-10-18T08:06:16.425Z,99326.94
2022-10-18T08:08:42.816Z,99330.22
2022-10-18T08:11:12.628Z,99326.50
2022-10-18T08:13:39.172Z,99331.66
2022-10-18T08:16:08.180Z,99324.66
2022-10-18T08:18:35.402Z,99319.78
2022-10-18T08:21:06.792Z,99322.28
2022-10-18T08:23:33.557Z,99321.09
2022-10-18T08:26:08.716Z,99311.78
2022-10-18T08:28:36.848Z,99309.69
2022-10-18T08:31:08.537Z,99315.31
2022-10-18T08:33:36.245Z,99309.00
2022-10-18T08:36:05.853Z,99316.00
2022-10-18T08:38:34.431Z,99315.53
2022-10-18T08:41:27.232Z,99315.53
2022-10-18T08:44:21.906Z,99293.69
2022-10-18T08:46:51.801Z,99287.53
2022-10-18T08:49:47.062Z,99281.66
2022-10-18T08:55:15.821Z,99271.59
2022-10-18T08:57:42.793Z,99269.19
2022-10-18T09:00:17.590Z,99260.06
2022-10-18T09:03:03.422Z,99253.13
2022-10-18T09:05:36.040Z,99249.09
2022-10-18T09:08:21.297Z,99254.28
2022-10-18T09:10:53.641Z,99247.94
2022-10-18T09:14:03.107Z,99252.66
2022-10-18T09:16:45.749Z,99247.47
2022-10-18T09:19:55.102Z,99261.97
2022-10-18T09:22:39.081Z,99262.72
2022-10-18T09:25:19.097Z,99272.19
2022-10-18T09:27:53.680Z,99263.03
2022-10-18T09:31:03.374Z,99250.34
2022-10-18T09:33:50.879Z,99243.19
2022-10-18T09:36:23.576Z,99239.03
2022-10-18T09:38:57.222Z,99234.66
2022-10-18T09:41:31.089Z,99226.56
2022-10-18T09:44:25.131Z,99235.88
2022-10-18T09:46:57.813Z,99237.13
2022-10-18T09:49:33.009Z,99217.25
2022-10-18T09:52:03.641Z,99222.78
2022-10-18T09:54:37.784Z,99219.59
2022-10-18T09:57:10.004Z,99217.38
2022-10-18T09:59:50.517Z,99211.59
2022-10-18T10:02:19.513Z,99196.31
2022-10-18T10:04:45.935Z,99203.56
2022-10-18T10:07:16.533Z,99192.81
2022-10-18T10:10:25.291Z,99188.09
2022-10-18T10:13:17.780Z,99178.69
2022-10-18T10:15:55.180Z,99170.91
2022-10-18T10:18:24.772Z,99172.75
2022-10-18T10:20:55.919Z,99171.53
2022-10-18T10:23:26.749Z,99172.72
2022-10-18T10:25:55.477Z,99155.63
2022-10-18T10:28:34.847Z,99168.50
2022-10-18T10:31:26.981Z,99156.75
2022-10-18T10:34:19.734Z,99162.84
2022-10-18T10:36:47.761Z,99154.81
2022-10-18T10:39:18.805Z,99147.50
2022-10-18T10:41:57.037Z,99143.91
2022-10-18T10:44:27.226Z,99150.66
2022-10-18T10:46:54.963Z,99152.31
2022-10-18T10:49:41.063Z,99200.41
2022-10-18T10:52:26.695Z,99238.25
2022-10-18T10:55:05.687Z,99236.69
2022-10-18T10:57:32.902Z,99231.31
2022-10-18T10:59:59.856Z,99226.22
2022-10-18T11:02:31.182Z,99255.06
2022-10-18T11:05:16.833Z,99254.97
2022-10-18T11:07:46.348Z,99268.38
2022-10-18T11:10:19.858Z,99277.97
2022-10-18T11:12:52.152Z,99296.84
2022-10-18T11:15:43.586Z,99294.25
2022-10-18T11:18:25.629Z,99285.28
2022-10-18T11:21:13.100Z,99274.97
2022-10-18T11:23:42.035Z,99265.47
2022-10-18T11:26:11.513Z,99259.16
2022-10-18T11:29:15.598Z,99255.75
2022-10-18T11:32:07.849Z,99250.16
2022-10-18T11:35:12.196Z,99255.28
2022-10-18T11:37:52.466Z,99259.00
2022-10-18T11:40:43.294Z,99258.75
2022-10-18T11:44:01.135Z,99252.59
2022-10-18T11:46:30.077Z,99247.97
2022-10-18T11:49:02.731Z,99244.44
2022-10-18T11:51:34.292Z,99244.28
2022-10-18T11:54:23.884Z,99264.94
2022-10-18T11:57:02.022Z,99266.06
2022-10-18T11:59:38.508Z,99276.03
2022-10-18T12:02:42.611Z,99282.59
2022-10-18T12:05:26.165Z,99270.16
2022-10-18T12:08:14.195Z,99279.78
2022-10-18T12:11:03.505Z,99271.34
2022-10-18T12:13:44.404Z,99280.06
2022-10-18T12:16:12.665Z,99288.66
2022-10-18T12:19:07.702Z,99288.84
2022-10-18T12:21:34.987Z,99294.72
2022-10-18T12:24:04.794Z,99297.94
2022-10-18T12:26:33.673Z,99298.75
2022-10-18T12:29:26.359Z,99297.28
2022-10-18T12:32:18.881Z,99304.50
2022-10-18T12:34:57.000Z,99306.00
2022-10-18T12:37:51.254Z,99303.03
2022-10-18T12:40:23.518Z,99307.25
2022-10-18T12:42:52.394Z,99301.38
2022-10-18T12:45:34.213Z,99307.53
2022-10-18T12:48:08.310Z,99316.59
2022-10-18T12:50:43.584Z,99318.41
2022-10-18T12:53:10.012Z,99320.53
2022-10-18T12:55:38.915Z,99324.13
2022-10-18T12:58:29.891Z,99332.47
2022-10-18T13:00:58.737Z,99321.56
2022-10-18T13:03:25.117Z,99325.78
2022-10-18T13:05:59.953Z,99326.91
2022-10-18T13:08:41.865Z,99326.53
2022-10-18T13:11:08.241Z,99325.53
2022-10-18T13:13:55.315Z,99317.78
2022-10-18T13:16:37.094Z,99326.16
2022-10-18T13:19:17.082Z,99334.22
2022-10-18T13:21:52.602Z,99336.78
2022-10-18T13:24:54.288Z,99327.69
2022-10-18T13:27:47.769Z,99339.84
2022-10-18T13:30:17.524Z,99344.91
2022-10-18T13:32:46.897Z,99334.66
2022-10-18T13:35:38.447Z,99337.28
2022-10-18T13:38:22.073Z,99345.28
2022-10-18T13:41:20.611Z,99344.22
2022-10-18T13:43:53.151Z,99344.22
2022-10-18T13:46:45.583Z,99344.16
2022-10-18T13:49:33.914Z,99340.84
2022-10-18T13:52:22.030Z,99338.22
2022-10-18T13:55:19.023Z,99332.03
2022-10-18T13:57:49.371Z,99333.16
2022-10-18T14:00:32.494Z,99338.28
2022-10-18T14:03:02.152Z,99336.78
2022-10-18T14:05:44.990Z,99336.78
2022-10-18T14:08:15.939Z,99337.94
2022-10-18T14:11:06.107Z,99329.84
2022-10-18T14:13:52.304Z,99329.91
2022-10-18T14:16:34.643Z,99321.19
2022-10-18T14:19:11.758Z,99317.16
2022-10-18T14:21:44.128Z,99315.69
2022-10-18T14:24:20.474Z,99313.91
2022-10-18T14:26:47.270Z,99306.91
2022-10-18T14:29:20.285Z,99301.09
2022-10-18T14:31:54.399Z,99296.72
2022-10-18T14:34:21.663Z,99302.16
2022-10-18T14:36:49.512Z,99315.72
2022-10-18T14:39:22.520Z,99331.81
2022-10-18T14:41:54.458Z,99333.91
2022-10-18T14:44:26.086Z,99334.22
2022-10-18T14:47:00.174Z,99337.22
2022-10-18T14:49:26.700Z,99338.22
2022-10-18T14:51:55.912Z,99348.47
2022-10-18T14:54:33.296Z,99349.56
2022-10-18T14:57:01.236Z,99350.28
2022-10-18T14:59:32.285Z,99352.38
2022-10-18T15:02:02.035Z,99355.69
2022-10-18T15:04:35.124Z,99356.44
2022-10-18T15:07:04.348Z,99357.47
2022-10-18T15:09:33.001Z,99354.94
2022-10-18T15:12:01.230Z,99348.00
2022-10-18T15:14:28.857Z,99343.50
2022-10-18T15:17:02.602Z,99350.84
2022-10-18T15:19:34.219Z,99349.72
2022-10-18T15:25:27.870Z,99341.59
2022-10-18T15:27:57.962Z,99339.41
2022-10-18T15:30:29.797Z,99343.38
2022-10-18T15:33:01.461Z,99343.31
2022-10-18T15:35:30.433Z,99352.06
2022-10-18T15:38:00.150Z,99350.25
2022-10-18T15:40:31.869Z,99363.41
2022-10-18T15:43:24.261Z,99367.31
2022-10-18T15:45:53.383Z,99364.41
2022-10-18T15:48:26.223Z,99369.81
2022-10-18T15:50:58.260Z,99366.50
2022-10-18T15:53:35.338Z,99366.44
2022-10-18T15:56:09.813Z,99369.31
2022-10-18T15:58:46.620Z,99377.28
2022-10-18T16:01:18.750Z,99368.78
2022-10-18T16:03:46.739Z,99381.91
2022-10-18T16:06:18.049Z,99377.16
2022-10-18T16:08:54.559Z,99376.72
2022-10-18T16:11:23.504Z,99383.66
2022-10-18T16:13:54.009Z,99390.63
2022-10-18T16:16:26.208Z,99385.41
2022-10-18T16:18:52.884Z,99392.44
2022-10-18T16:21:39.534Z,99385.41
2022-10-18T16:24:06.360Z,99387.22
2022-10-18T16:26:33.766Z,99381.03
2022-10-18T16:29:00.880Z,99383.66
2022-10-18T16:31:30.447Z,99388.06
2022-10-18T16:33:57.598Z,99380.38
2022-10-18T16:36:28.967Z,99381.84
2022-10-18T16:38:56.522Z,99387.72
2022-10-18T16:41:23.779Z,99392.09
2022-10-18T16:43:50.755Z,99400.50
2022-10-18T16:46:21.035Z,99392.50
2022-10-18T16:48:48.841Z,99400.97
2022-10-18T16:51:15.393Z,99403.50
2022-10-18T16:53:42.118Z,99409.63
2022-10-18T16:56:31.226Z,99406.91
2022-10-18T16:58:59.072Z,99414.75
2022-10-18T17:01:26.363Z,99409.00
2022-10-18T17:03:53.612Z,99411.72
2022-10-18T17:06:26.127Z,99410.22
2022-10-18T17:08:54.532Z,99416.44
2022-10-18T17:11:22.449Z,99410.59
2022-10-18T17:13:49.022Z,99412.47
2022-10-18T17:16:23.353Z,99415.44
2022-10-18T17:18:49.822Z,99400.47
2022-10-18T17:21:16.230Z,99408.16
2022-10-18T17:23:42.731Z,99408.16
2022-10-18T17:26:28.759Z,99416.56
2022-10-18T17:29:06.990Z,99430.78
2022-10-18T17:31:33.967Z,99426.34
2022-10-18T17:34:01.901Z,99432.88
2022-10-18T17:36:30.586Z,99422.63
2022-10-18T17:38:57.245Z,99427.41
2022-10-18T17:41:23.930Z,99420.06
2022-10-18T17:43:50.323Z,99415.72
2022-10-18T17:46:17.954Z,99426.25
2022-10-18T17:48:44.635Z,99425.19
2022-10-18T17:51:13.667Z,99423.69
2022-10-18T17:53:40.082Z,99433.63
2022-10-18T17:56:07.785Z,99434.69
2022-10-18T17:58:35.108Z,99435.00
2022-10-18T18:01:15.844Z,99432.13
2022-10-18T18:03:42.598Z,99436.19
2022-10-18T18:06:33.770Z,99427.75
2022-10-18T18:09:04.917Z,99429.25
2022-10-18T18:11:31.414Z,99431.38
2022-10-18T18:13:58.494Z,99428.91
2022-10-18T18:16:27.528Z,99433.28
2022-10-18T18:18:56.670Z,99426.00
2022-10-18T18:21:24.278Z,99431.09
2022-10-18T18:23:50.782Z,99424.13
2022-10-18T18:26:18.796Z,99431.06
2022-10-18T18:28:45.964Z,99422.63
2022-10-18T18:31:24.574Z,99426.72
2022-10-18T18:33:52.775Z,99431.06
2022-10-18T18:36:20.582Z,99428.06
2022-10-18T18:38:47.675Z,99428.50
2022-10-18T18:41:20.299Z,99429.97
2022-10-18T18:43:52.009Z,99436.94
2022-10-18T18:46:18.705Z,99429.25
2022-10-18T18:48:45.263Z,99435.09
2022-10-18T18:51:14.445Z,99427.09
2022-10-18T18:53:42.314Z,99432.19
2022-10-18T18:56:11.263Z,99429.28
2022-10-18T18:58:39.049Z,99434.75
2022-10-18T19:01:11.496Z,99422.28
2022-10-18T19:03:40.248Z,99430.72
2022-10-18T19:06:09.893Z,99427.47
2022-10-18T19:08:38.082Z,99415.44
2022-10-18T19:11:08.118Z,99426.72
2022-10-18T19:13:35.701Z,99426.34
2022-10-18T19:16:17.120Z,99425.50
2022-10-18T19:18:43.526Z,99428.81
2022-10-18T19:21:10.118Z,99426.59
2022-10-18T19:23:36.525Z,99431.22
2022-10-18T19:26:37.708Z,99432.97
2022-10-18T19:29:10.692Z,99434.78
2022-10-18T19:31:38.567Z,99426.75
2022-10-18T19:34:07.632Z,99430.91
2022-10-18T19:36:35.238Z,99431.22
2022-10-18T19:39:01.825Z,99429.66
2022-10-18T19:41:28.834Z,99438.91
2022-10-18T19:43:56.726Z,99447.31
2022-10-18T19:46:23.514Z,99449.38
2022-10-18T19:48:50.531Z,99438.41
2022-10-18T19:51:20.316Z,99439.13
2022-10-18T19:53:50.622Z,99440.13
2022-10-18T19:56:21.013Z,99439.72
2022-10-18T19:58:47.972Z,99442.38
2022-10-18T20:01:15.155Z,99441.84
2022-10-18T20:03:42.117Z,99435.94
2022-10-18T20:06:09.242Z,99440.38
2022-10-18T20:08:36.879Z,99440.88
2022-10-18T20:11:09.187Z,99434.88
2022-10-18T20:13:36.034Z,99443.34
2022-10-18T20:16:04.158Z,99444.25
2022-10-18T20:18:30.690Z,99441.38
2022-10-18T20:20:57.078Z,99443.53
2022-10-18T20:23:23.609Z,99439.06
2022-10-18T20:26:01.680Z,99443.53
2022-10-18T20:28:28.708Z,99439.50
2022-10-18T20:31:05.812Z,99441.53
2022-10-18T20:33:33.744Z,99443.44
2022-10-18T20:36:18.122Z,99446.56
2022-10-18T20:38:46.632Z,99439.72
2022-10-18T20:41:25.678Z,99444.09
2022-10-18T20:43:54.952Z,99449.06
2022-10-18T20:46:22.127Z,99453.09
2022-10-18T20:48:53.127Z,99454.84
2022-10-18T20:51:20.539Z,99454.44
2022-10-18T20:53:46.990Z,99455.50
2022-10-18T20:56:21.197Z,99459.53
2022-10-18T20:58:50.241Z,99457.00
2022-10-18T21:01:21.813Z,99448.25
2022-10-18T21:03:50.024Z,99443.13
2022-10-18T21:06:40.978Z,99441.31
2022-10-18T21:09:11.092Z,99446.06
2022-10-18T21:11:39.974Z,99450.44
2022-10-18T21:14:07.807Z,99453.41
2022-10-18T21:16:35.854Z,99444.19
2022-10-18T21:19:08.112Z,99447.50
2022-10-18T21:21:34.994Z,99448.88
2022-10-18T21:24:05.304Z,99443.50
2022-10-18T21:26:34.421Z,99442.84
2022-10-18T21:29:00.949Z,99444.66
2022-10-18T21:31:29.892Z,99458.94
2022-10-18T21:34:01.106Z,99455.88
2022-10-18T21:36:31.637Z,99454.72
2022-10-18T21:38:58.616Z,99456.88
2022-10-18T21:41:25.615Z,99458.25
2022-10-18T21:43:54.904Z,99452.56
2022-10-18T21:46:23.961Z,99451.47
2022-10-18T21:48:51.919Z,99457.69
2022-10-18T21:51:19.942Z,99453.22
2022-10-18T21:53:48.619Z,99458.44
2022-10-18T21:56:17.149Z,99463.09
2022-10-18T21:58:44.227Z,99449.59
2022-10-18T22:01:19.148Z,99461.81
2022-10-18T22:03:48.305Z,99454.16
2022-10-18T22:06:16.507Z,99461.88
2022-10-18T22:08:52.418Z,99451.28
2022-10-18T22:11:21.120Z,99443.50
2022-10-18T22:13:47.654Z,99440.94
2022-10-18T22:16:16.409Z,99444.16
2022-10-18T22:18:44.149Z,99439.03
2022-10-18T22:21:12.214Z,99437.22
2022-10-18T22:23:47.193Z,99439.03
2022-10-18T22:26:16.325Z,99439.88
2022-10-18T22:28:44.333Z,99443.88
2022-10-18T22:31:19.114Z,99439.88
2022-10-18T22:33:46.594Z,99444.53
2022-10-18T22:36:13.009Z,99431.91
2022-10-18T22:38:39.784Z,99439.47
2022-10-18T22:41:11.486Z,99438.81
2022-10-18T22:43:38.640Z,99433.63
2022-10-18T22:46:07.781Z,99430.03
2022-10-18T22:48:34.831Z,99430.69
2022-10-18T22:51:01.644Z,99431.13
2022-10-18T22:53:28.160Z,99424.22
2022-10-18T22:55:54.553Z,99422.41
2022-10-18T22:58:21.048Z,99413.94
2022-10-18T23:00:47.855Z,99414.16
2022-10-18T23:03:16.291Z,99424.38
2022-10-18T23:05:44.805Z,99418.19
2022-10-18T23:08:12.681Z,99415.00
2022-10-18T23:10:41.088Z,99416.31
2022-10-18T23:13:08.776Z,99418.06
2022-10-18T23:15:35.676Z,99414.56
2022-10-18T23:18:02.251Z,99419.00
2022-10-18T23:20:28.626Z,99415.63
2022-10-18T23:22:54.993Z,99415.00
2022-10-18T23:25:21.426Z,99414.44
2022-10-18T23:27:47.868Z,99415.84
2022-10-18T23:30:14.396Z,99417.53
2022-10-18T23:32:40.764Z,99421.13
2022-10-18T23:35:07.470Z,99416.38
2022-10-18T23:37:34.070Z,99426.38
2022-10-18T23:40:00.654Z,99421.91
2022-10-18T23:42:27.118Z,99424.47
2022-10-18T23:44:53.503Z,99425.06
2022-10-18T23:47:19.891Z,99426.69
2022-10-18T23:49:46.277Z,99414.66
2022-10-18T23:52:12.670Z,99420.41
2022-10-18T23:54:39.060Z,99423.38
2022-10-18T23:57:05.642Z,99433.91
2022-10-18T23:59:32.045Z,99436.88
